createdAt,value
2023-02-06T00:00:53.616Z,1.00
2023-02-06T00:03:20.807Z,1.30
2023-02-06T00:05:59.501Z,1.15
2023-02-06T00:08:28.030Z,1.85
2023-02-06T00:10:55.569Z,1.20
2023-02-06T00:13:22.895Z,1.45
2023-02-06T00:15:49.896Z,1.17
2023-02-06T00:18:16.855Z,0.98
2023-02-06T00:20:43.746Z,1.30
2023-02-06T00:23:10.686Z,1.00
2023-02-06T00:25:37.661Z,1.10
2023-02-06T00:28:05.239Z,1.10
2023-02-06T00:30:32.162Z,1.33
2023-02-06T00:32:59.199Z,1.17
2023-02-06T00:35:26.244Z,1.20
2023-02-06T00:37:53.204Z,1.10
2023-02-06T00:40:20.162Z,0.90
2023-02-06T00:42:47.077Z,1.00
2023-02-06T00:45:14.088Z,1.20
2023-02-06T00:47:40.931Z,1.08
2023-02-06T00:50:08.152Z,1.23
2023-02-06T00:52:35.126Z,0.95
2023-02-06T00:55:01.971Z,1.25
2023-02-06T00:57:29.208Z,1.58
2023-02-06T00:59:56.019Z,1.65
2023-02-06T01:02:22.945Z,1.30
2023-02-06T01:04:49.798Z,1.35
2023-02-06T01:07:16.704Z,1.33
2023-02-06T01:09:43.529Z,1.35
2023-02-06T01:12:10.387Z,1.40
2023-02-06T01:14:37.561Z,1.30
2023-02-06T01:17:05.249Z,1.42
2023-02-06T01:19:34.176Z,1.40
2023-02-06T01:22:01.137Z,1.52
2023-02-06T01:24:28.092Z,1.20
2023-02-06T01:26:55.000Z,1.20
2023-02-06T01:29:21.923Z,1.30
2023-02-06T01:31:48.841Z,1.40
2023-02-06T01:34:15.821Z,1.10
2023-02-06T01:36:42.669Z,1.10
2023-02-06T01:39:10.474Z,1.23
2023-02-06T01:41:37.310Z,1.40
2023-02-06T01:44:13.672Z,1.15
2023-02-06T01:46:42.491Z,1.15
2023-02-06T01:49:15.327Z,1.40
2023-02-06T01:51:42.604Z,1.15
2023-02-06T01:54:10.477Z,1.42
2023-02-06T01:56:43.971Z,1.20
2023-02-06T01:59:12.098Z,1.25
2023-02-06T02:01:38.960Z,1.20
2023-02-06T02:04:08.691Z,1.27
2023-02-06T02:06:35.847Z,1.15
2023-02-06T02:09:04.744Z,1.40
2023-02-06T02:11:37.843Z,1.30
2023-02-06T02:14:08.813Z,1.20
2023-02-06T02:17:00.181Z,1.10
2023-02-06T02:22:15.412Z,1.20
2023-02-06T02:24:48.006Z,1.20
2023-02-06T02:27:45.161Z,1.00
2023-02-06T02:30:26.088Z,1.20
2023-02-06T02:33:18.192Z,1.27
2023-02-06T02:35:44.969Z,1.27
2023-02-06T02:38:45.647Z,1.40
2023-02-06T02:41:28.090Z,0.77
2023-02-06T02:44:30.400Z,1.10
2023-02-06T02:47:02.104Z,1.13
2023-02-06T02:49:32.463Z,1.13
2023-02-06T02:52:00.132Z,1.17
2023-02-06T02:54:27.083Z,1.13
2023-02-06T02:56:58.521Z,1.23
2023-02-06T02:59:32.730Z,0.90
2023-02-06T03:02:15.384Z,0.93
2023-02-06T03:04:51.522Z,1.20
2023-02-06T03:07:27.573Z,1.00
2023-02-06T03:10:19.107Z,1.27
2023-02-06T03:12:54.359Z,1.20
2023-02-06T03:15:31.186Z,1.20
2023-02-06T03:18:06.986Z,1.17
2023-02-06T03:20:37.167Z,1.10
2023-02-06T03:23:07.126Z,1.00
2023-02-06T03:25:39.161Z,1.15
2023-02-06T03:28:13.503Z,1.20
2023-02-06T03:30:42.886Z,1.60
2023-02-06T03:33:13.796Z,1.10
2023-02-06T03:35:40.792Z,1.00
2023-02-06T03:38:09.506Z,1.00
2023-02-06T03:40:37.798Z,1.20
2023-02-06T03:43:05.955Z,1.10
2023-02-06T03:45:42.687Z,1.00
2023-02-06T03:48:17.577Z,1.00
2023-02-06T03:50:48.304Z,0.80
2023-02-06T03:53:17.218Z,1.13
2023-02-06T03:55:47.527Z,0.80
2023-02-06T03:58:15.053Z,1.00
2023-02-06T04:00:44.833Z,1.08
2023-02-06T04:03:13.312Z,1.13
2023-02-06T04:05:41.300Z,1.48
2023-02-06T04:08:08.156Z,1.05
2023-02-06T04:10:35.034Z,1.10
2023-02-06T04:13:02.010Z,1.10
2023-02-06T04:15:28.982Z,1.15
2023-02-06T04:18:01.248Z,0.90
2023-02-06T04:20:29.738Z,1.08
2023-02-06T04:22:57.327Z,1.17
2023-02-06T04:25:24.239Z,0.85
2023-02-06T04:27:51.246Z,1.33
2023-02-06T04:30:18.572Z,0.93
2023-02-06T04:32:45.574Z,0.93
2023-02-06T04:35:12.464Z,0.85
2023-02-06T04:37:39.414Z,1.08
2023-02-06T04:40:06.900Z,1.10
2023-02-06T04:42:33.719Z,0.90
2023-02-06T04:45:00.552Z,0.70
2023-02-06T04:47:27.650Z,1.05
2023-02-06T04:49:54.478Z,1.05
2023-02-06T04:52:21.299Z,1.00
2023-02-06T04:54:48.147Z,0.85
2023-02-06T04:57:14.963Z,0.90
2023-02-06T04:59:41.754Z,0.77
2023-02-06T05:02:08.575Z,1.20
2023-02-06T05:04:35.366Z,0.85
2023-02-06T05:07:03.959Z,0.70
2023-02-06T05:09:32.338Z,0.98
2023-02-06T05:11:59.534Z,0.80
2023-02-06T05:14:26.457Z,1.05
2023-02-06T05:16:53.246Z,0.95
2023-02-06T05:19:20.080Z,1.08
2023-02-06T05:21:47.110Z,1.08
2023-02-06T05:24:13.984Z,0.73
2023-02-06T05:26:40.814Z,0.80
2023-02-06T05:29:07.948Z,1.00
2023-02-06T05:31:36.121Z,0.90
2023-02-06T05:34:02.998Z,1.10
2023-02-06T05:36:29.959Z,0.90
2023-02-06T05:38:57.490Z,0.90
2023-02-06T05:41:24.465Z,1.65
2023-02-06T05:43:51.321Z,1.15
2023-02-06T05:46:19.684Z,1.20
2023-02-06T05:48:46.685Z,1.17
2023-02-06T05:51:13.556Z,1.00
2023-02-06T05:53:40.401Z,1.40
2023-02-06T05:56:07.429Z,1.10
2023-02-06T05:58:34.745Z,1.40
2023-02-06T06:01:01.597Z,0.88
2023-02-06T06:03:28.443Z,1.45
2023-02-06T06:05:55.941Z,1.70
2023-02-06T06:08:23.431Z,2.03
2023-02-06T06:10:52.279Z,2.17
2023-02-06T06:13:19.330Z,6.53
2023-02-06T06:15:46.312Z,7.18
2023-02-06T06:18:13.233Z,6.75
2023-02-06T06:20:40.057Z,5.35
2023-02-06T06:23:06.894Z,5.03
2023-02-06T06:25:35.502Z,5.22
2023-02-06T06:28:03.285Z,7.10
2023-02-06T06:30:30.629Z,4.97
2023-02-06T06:32:57.629Z,5.00
2023-02-06T06:35:26.261Z,2.47
2023-02-06T06:37:53.094Z,1.98
2023-02-06T06:40:20.153Z,2.72
2023-02-06T06:42:47.044Z,2.40
2023-02-06T06:45:14.101Z,2.72
2023-02-06T06:47:41.237Z,2.33
2023-02-06T06:50:08.821Z,2.17
2023-02-06T06:52:35.746Z,2.70
2023-02-06T06:55:02.728Z,2.03
2023-02-06T06:57:33.068Z,1.70
2023-02-06T07:00:00.056Z,1.97
2023-02-06T07:02:28.840Z,1.77
2023-02-06T07:04:55.990Z,2.28
2023-02-06T07:07:23.142Z,1.83
2023-02-06T07:09:50.229Z,2.03
2023-02-06T07:12:17.231Z,1.85
2023-02-06T07:14:44.238Z,2.05
2023-02-06T07:17:11.261Z,1.85
2023-02-06T07:19:38.236Z,2.25
2023-02-06T07:22:05.518Z,2.88
2023-02-06T07:24:32.435Z,2.13
2023-02-06T07:26:59.479Z,1.95
2023-02-06T07:29:26.452Z,1.67
2023-02-06T07:31:53.442Z,4.85
2023-02-06T07:34:20.478Z,2.83
2023-02-06T07:36:47.657Z,2.00
2023-02-06T07:39:14.651Z,2.05
2023-02-06T07:41:41.701Z,2.40
2023-02-06T07:44:11.222Z,2.28
2023-02-06T07:46:38.149Z,1.95
2023-02-06T07:49:05.209Z,2.97
2023-02-06T07:51:32.609Z,1.80
2023-02-06T07:53:59.538Z,2.78
2023-02-06T07:56:26.620Z,1.65
2023-02-06T07:58:55.296Z,1.30
2023-02-06T08:01:23.396Z,1.70
2023-02-06T08:03:51.546Z,1.67
2023-02-06T08:06:19.375Z,1.48
2023-02-06T08:08:46.966Z,1.52
2023-02-06T08:11:17.316Z,1.40
2023-02-06T08:13:44.817Z,1.60
2023-02-06T08:16:18.774Z,1.20
2023-02-06T08:18:46.117Z,1.50
2023-02-06T08:21:16.356Z,1.40
2023-02-06T08:23:43.878Z,0.97
2023-02-06T08:26:12.421Z,1.20
2023-02-06T08:28:42.180Z,1.40
2023-02-06T08:31:15.736Z,1.30
2023-02-06T08:33:42.758Z,1.50
2023-02-06T08:36:11.114Z,1.50
2023-02-06T08:38:39.087Z,1.30
2023-02-06T08:41:15.044Z,1.00
2023-02-06T08:43:41.973Z,1.45
2023-02-06T08:46:08.891Z,1.35
2023-02-06T08:48:35.951Z,2.42
2023-02-06T08:51:07.809Z,1.58
2023-02-06T08:53:34.893Z,1.52
2023-02-06T08:56:08.051Z,1.70
2023-02-06T08:58:35.160Z,2.00
2023-02-06T09:01:10.077Z,2.28
2023-02-06T09:03:37.411Z,1.42
2023-02-06T09:06:10.283Z,1.92
2023-02-06T09:08:38.921Z,1.75
2023-02-06T09:11:17.625Z,1.25
2023-02-06T09:13:49.200Z,1.15
2023-02-06T09:16:18.571Z,1.20
2023-02-06T09:18:45.950Z,1.23
2023-02-06T09:21:22.052Z,0.90
2023-02-06T09:23:51.961Z,1.48
2023-02-06T09:26:23.495Z,1.08
2023-02-06T09:28:58.105Z,2.17
2023-02-06T09:31:27.006Z,1.35
2023-02-06T09:33:54.006Z,1.08
2023-02-06T09:36:22.040Z,1.00
2023-02-06T09:38:58.098Z,1.33
2023-02-06T09:41:37.342Z,1.20
2023-02-06T09:44:39.779Z,1.27
2023-02-06T09:47:28.008Z,1.02
2023-02-06T09:49:59.978Z,1.10
2023-02-06T09:52:30.044Z,1.20
2023-02-06T09:55:06.127Z,0.88
2023-02-06T09:57:33.382Z,1.00
2023-02-06T10:00:04.128Z,0.80
2023-02-06T10:02:53.004Z,0.73
2023-02-06T10:05:26.480Z,1.70
2023-02-06T10:08:03.666Z,1.30
2023-02-06T10:10:58.832Z,2.47
2023-02-06T10:13:44.108Z,3.13
2023-02-06T10:16:24.751Z,4.68
2023-02-06T10:18:55.570Z,3.25
2023-02-06T10:21:41.674Z,2.40
2023-02-06T10:24:20.096Z,3.17
2023-02-06T10:26:50.581Z,1.95
2023-02-06T10:29:36.752Z,1.25
2023-02-06T10:32:39.094Z,1.70
2023-02-06T10:35:11.840Z,1.80
2023-02-06T10:37:53.360Z,1.55
2023-02-06T10:40:26.352Z,1.58
2023-02-06T10:43:18.179Z,2.60
2023-02-06T10:46:06.170Z,2.90
2023-02-06T10:48:37.668Z,2.97
2023-02-06T10:51:16.362Z,2.05
2023-02-06T10:53:52.281Z,3.05
2023-02-06T10:56:29.223Z,1.20
2023-02-06T10:59:13.087Z,1.40
2023-02-06T11:01:43.362Z,1.67
2023-02-06T11:04:19.981Z,1.10
2023-02-06T11:06:47.383Z,1.10
2023-02-06T11:09:15.998Z,1.27
2023-02-06T11:11:50.172Z,1.33
2023-02-06T11:14:32.061Z,1.30
2023-02-06T11:17:02.241Z,1.65
2023-02-06T11:19:38.920Z,1.08
2023-02-06T11:22:07.566Z,1.38
2023-02-06T11:24:36.234Z,1.38
2023-02-06T11:27:20.952Z,1.08
2023-02-06T11:29:52.073Z,1.17
2023-02-06T11:33:02.666Z,1.23
2023-02-06T11:35:39.613Z,1.25
2023-02-06T11:38:22.143Z,1.35
2023-02-06T11:40:57.009Z,1.40
2023-02-06T11:43:27.288Z,1.40
2023-02-06T11:46:16.103Z,1.90
2023-02-06T11:49:01.580Z,1.50
2023-02-06T11:52:00.080Z,1.63
2023-02-06T11:54:35.082Z,1.75
2023-02-06T11:57:21.070Z,1.70
2023-02-06T12:00:03.920Z,1.25
2023-02-06T12:02:32.249Z,2.22
2023-02-06T12:05:03.156Z,3.05
2023-02-06T12:07:38.295Z,2.35
2023-02-06T12:10:20.310Z,3.35
2023-02-06T12:13:02.616Z,3.58
2023-02-06T12:15:47.883Z,2.25
2023-02-06T12:18:24.524Z,20.27
2023-02-06T12:20:56.626Z,4.50
2023-02-06T12:23:41.501Z,3.90
2023-02-06T12:26:18.994Z,4.30
2023-02-06T12:28:57.694Z,2.28
2023-02-06T12:31:43.411Z,2.83
2023-02-06T12:34:13.463Z,3.40
2023-02-06T12:36:59.213Z,2.40
2023-02-06T12:39:32.111Z,2.67
2023-02-06T12:42:21.813Z,4.32
2023-02-06T12:45:13.655Z,3.85
2023-02-06T12:48:07.343Z,5.55
2023-02-06T12:50:46.087Z,2.55
2023-02-06T12:53:39.516Z,3.58
2023-02-06T12:56:42.031Z,3.20
2023-02-06T12:59:18.162Z,4.05
2023-02-06T13:02:01.299Z,3.47
2023-02-06T13:04:32.864Z,2.83
2023-02-06T13:07:16.963Z,3.00
2023-02-06T13:19:44.985Z,2.83
2023-02-06T13:22:13.268Z,2.25
2023-02-06T13:24:42.975Z,2.15
2023-02-06T13:27:12.865Z,3.72
2023-02-06T13:29:52.155Z,2.70
2023-02-06T13:32:18.993Z,2.90
2023-02-06T13:35:21.116Z,2.45
2023-02-06T13:37:50.430Z,3.45
2023-02-06T13:40:23.956Z,4.10
2023-02-06T13:43:10.402Z,7.10
2023-02-06T13:45:43.117Z,5.20
2023-02-06T13:48:31.189Z,6.38
2023-02-06T13:51:14.559Z,4.82
2023-02-06T13:54:07.143Z,5.35
2023-02-06T13:57:11.628Z,2.95
2023-02-06T13:59:45.261Z,3.30
2023-02-06T14:02:18.896Z,3.47
2023-02-06T14:04:47.116Z,3.55
2023-02-06T14:07:38.478Z,2.63
2023-02-06T14:13:18.396Z,2.83
2023-02-06T14:15:59.454Z,4.40
2023-02-06T14:18:38.915Z,3.45
2023-02-06T14:21:47.510Z,3.15
2023-02-06T14:24:30.114Z,2.97
2023-02-06T14:27:05.994Z,2.17
2023-02-06T14:29:38.935Z,2.42
2023-02-06T14:32:28.785Z,2.05
2023-02-06T14:35:26.998Z,1.73
2023-02-06T14:38:15.496Z,2.65
2023-02-06T14:40:47.698Z,2.83
2023-02-06T14:43:21.706Z,3.17
2023-02-06T14:46:07.353Z,2.92
2023-02-06T14:48:44.800Z,2.17
2023-02-06T14:51:37.335Z,1.77
2023-02-06T14:54:26.315Z,1.98
2023-02-06T14:56:58.778Z,1.98
2023-02-06T14:59:25.835Z,1.70
2023-02-06T15:01:55.016Z,1.60
2023-02-06T15:04:27.957Z,2.20
2023-02-06T15:07:03.933Z,1.60
2023-02-06T15:09:36.737Z,2.60
2023-02-06T15:12:18.031Z,2.17
2023-02-06T15:17:32.153Z,2.35
2023-02-06T15:20:21.460Z,2.47
2023-02-06T15:22:48.584Z,2.35
2023-02-06T15:25:44.720Z,2.67
2023-02-06T15:28:21.087Z,2.30
2023-02-06T15:30:54.624Z,2.17
2023-02-06T15:33:29.001Z,2.85
2023-02-06T15:35:58.845Z,2.72
2023-02-06T15:38:28.318Z,1.90
2023-02-06T15:40:59.502Z,1.95
2023-02-06T15:43:27.912Z,1.83
2023-02-06T15:46:01.647Z,2.15
2023-02-06T15:48:43.635Z,1.85
2023-02-06T15:51:24.714Z,3.15
2023-02-06T15:54:05.873Z,2.45
2023-02-06T15:56:37.748Z,3.38
2023-02-06T15:59:08.074Z,2.50
2023-02-06T16:01:40.461Z,2.63
2023-02-06T16:04:22.470Z,2.72
2023-02-06T16:07:19.873Z,2.53
2023-02-06T16:10:12.858Z,3.67
2023-02-06T16:12:42.375Z,4.35
2023-02-06T16:15:30.703Z,5.32
2023-02-06T16:18:00.349Z,7.25
2023-02-06T16:20:37.458Z,5.57
2023-02-06T16:23:26.433Z,6.00
2023-02-06T16:26:24.397Z,5.57
2023-02-06T16:29:03.843Z,4.05
2023-02-06T16:31:35.070Z,4.05
2023-02-06T16:34:05.445Z,4.38
2023-02-06T16:36:33.914Z,4.37
2023-02-06T16:39:04.511Z,3.70
2023-02-06T16:41:41.754Z,5.97
2023-02-06T16:44:13.738Z,5.03
2023-02-06T16:46:41.262Z,2.88
2023-02-06T16:49:14.733Z,3.67
2023-02-06T16:51:43.471Z,4.10
2023-02-06T16:54:27.747Z,3.97
2023-02-06T16:56:57.720Z,4.18
2023-02-06T16:59:24.737Z,3.75
2023-02-06T17:01:51.748Z,4.82
2023-02-06T17:04:18.874Z,5.07
2023-02-06T17:06:45.894Z,4.03
2023-02-06T17:09:17.725Z,3.47
2023-02-06T17:11:45.327Z,3.80
2023-02-06T17:14:12.372Z,2.75
2023-02-06T17:16:39.532Z,4.45
2023-02-06T17:19:06.495Z,3.63
2023-02-06T17:21:33.708Z,2.90
2023-02-06T17:24:00.992Z,2.15
2023-02-06T17:26:28.094Z,2.70
2023-02-06T17:28:55.170Z,2.13
2023-02-06T17:31:22.561Z,2.53
2023-02-06T17:33:50.204Z,1.90
2023-02-06T17:36:22.990Z,2.03
2023-02-06T17:38:50.083Z,1.65
2023-02-06T17:41:17.037Z,3.78
2023-02-06T17:43:44.762Z,5.45
2023-02-06T17:46:13.451Z,2.83
2023-02-06T17:48:42.939Z,4.13
2023-02-06T17:51:10.745Z,2.85
2023-02-06T17:53:37.913Z,2.60
2023-02-06T17:56:12.283Z,2.33
2023-02-06T17:58:40.959Z,2.25
2023-02-06T18:01:23.736Z,2.22
2023-02-06T18:03:50.980Z,2.05
2023-02-06T18:06:18.970Z,3.42
2023-02-06T18:08:46.818Z,2.28
2023-02-06T18:11:22.085Z,2.58
2023-02-06T18:13:50.318Z,3.22
2023-02-06T18:16:21.326Z,1.38
2023-02-06T18:18:48.715Z,2.08
2023-02-06T18:21:19.530Z,1.83
2023-02-06T18:23:47.752Z,1.48
2023-02-06T18:26:15.181Z,1.92
2023-02-06T18:28:42.155Z,1.60
2023-02-06T18:31:39.298Z,1.65
2023-02-06T18:34:08.381Z,1.77
2023-02-06T18:36:39.073Z,1.20
2023-02-06T18:39:06.964Z,1.15
2023-02-06T18:41:52.867Z,1.02
2023-02-06T18:44:19.944Z,1.13
2023-02-06T18:46:48.159Z,0.85
2023-02-06T18:49:15.738Z,0.93
2023-02-06T18:51:43.697Z,0.90
2023-02-06T18:54:11.369Z,0.88
2023-02-06T18:56:40.318Z,0.80
2023-02-06T18:59:07.380Z,1.50
2023-02-06T19:01:35.099Z,1.05
2023-02-06T19:04:03.091Z,1.30
2023-02-06T19:06:35.581Z,1.17
2023-02-06T19:09:07.352Z,1.00
2023-02-06T19:11:36.213Z,1.27
2023-02-06T19:14:06.195Z,1.10
2023-02-06T19:16:34.733Z,1.30
2023-02-06T19:19:02.428Z,0.90
2023-02-06T19:21:30.411Z,1.27
2023-02-06T19:24:00.660Z,1.40
2023-02-06T19:26:29.257Z,0.90
2023-02-06T19:28:57.765Z,1.40
2023-02-06T19:31:25.621Z,1.35
2023-02-06T19:33:55.336Z,1.10
2023-02-06T19:36:28.564Z,1.27
2023-02-06T19:39:00.295Z,1.33
2023-02-06T19:41:31.301Z,1.98
2023-02-06T19:44:02.005Z,1.00
2023-02-06T19:46:29.663Z,1.10
2023-02-06T19:48:57.009Z,1.20
2023-02-06T19:51:30.565Z,1.15
2023-02-06T19:53:59.373Z,1.15
2023-02-06T19:56:32.027Z,1.40
2023-02-06T19:59:05.382Z,1.35
2023-02-06T20:01:33.236Z,1.63
2023-02-06T20:04:02.806Z,1.38
2023-02-06T20:06:35.251Z,1.45
2023-02-06T20:09:04.826Z,1.55
2023-02-06T20:11:34.475Z,2.00
2023-02-06T20:14:02.333Z,1.70
2023-02-06T20:16:33.467Z,1.75
2023-02-06T20:21:39.710Z,2.00
2023-02-06T20:24:09.432Z,3.92
2023-02-06T20:26:40.150Z,2.10
2023-02-06T20:29:09.774Z,1.77
2023-02-06T20:31:37.507Z,1.73
2023-02-06T20:34:06.968Z,1.48
2023-02-06T20:36:34.409Z,1.95
2023-02-06T20:39:01.727Z,1.70
2023-02-06T20:41:31.941Z,1.45
2023-02-06T20:44:02.677Z,2.10
2023-02-06T20:46:33.531Z,1.63
2023-02-06T20:49:05.097Z,1.38
2023-02-06T20:51:34.891Z,1.60
2023-02-06T20:54:02.287Z,2.03
2023-02-06T20:56:29.873Z,1.75
2023-02-06T20:58:58.817Z,1.13
2023-02-06T21:01:28.576Z,1.20
2023-02-06T21:04:01.407Z,2.03
2023-02-06T21:06:32.215Z,1.15
2023-02-06T21:09:02.204Z,1.33
2023-02-06T21:11:33.407Z,1.10
2023-02-06T21:14:05.670Z,0.93
2023-02-06T21:16:35.297Z,1.48
2023-02-06T21:19:05.231Z,1.00
2023-02-06T21:21:34.566Z,1.25
2023-02-06T21:24:04.167Z,1.13
2023-02-06T21:26:32.571Z,0.93
2023-02-06T21:29:04.661Z,0.90
2023-02-06T21:31:38.393Z,1.30
2023-02-06T21:34:16.564Z,1.10
2023-02-06T21:36:44.543Z,1.08
2023-02-06T21:39:17.733Z,1.10
2023-02-06T21:41:47.799Z,0.77
2023-02-06T21:44:18.401Z,1.15
2023-02-06T21:46:45.945Z,0.85
2023-02-06T21:49:16.674Z,1.20
2023-02-06T21:51:46.555Z,1.20
2023-02-06T21:54:14.088Z,0.93
2023-02-06T21:56:41.403Z,1.52
2023-02-06T21:59:10.929Z,0.90
2023-02-06T22:01:41.116Z,0.85
2023-02-06T22:04:11.898Z,1.20
2023-02-06T22:06:39.745Z,0.80
2023-02-06T22:09:09.098Z,1.58
2023-02-06T22:11:38.862Z,0.93
2023-02-06T22:14:10.466Z,1.77
2023-02-06T22:16:38.139Z,1.00
2023-02-06T22:19:06.313Z,1.92
2023-02-06T22:21:35.045Z,1.38
2023-02-06T22:24:05.847Z,1.27
2023-02-06T22:26:36.988Z,1.10
2023-02-06T22:31:33.556Z,0.95
2023-02-06T22:34:01.493Z,1.15
2023-02-06T22:36:31.841Z,0.85
2023-02-06T22:39:02.764Z,0.85
2023-02-06T22:41:30.874Z,1.23
2023-02-06T22:43:58.680Z,0.70
2023-02-06T22:46:32.297Z,0.80
2023-02-06T22:48:59.965Z,0.65
2023-02-06T22:51:27.787Z,1.10
2023-02-06T22:53:55.449Z,0.70
2023-02-06T22:56:29.889Z,0.95
2023-02-06T22:59:19.745Z,1.50
2023-02-06T23:01:48.302Z,0.70
2023-02-06T23:04:18.658Z,1.05
2023-02-06T23:06:46.209Z,0.90
2023-02-06T23:09:17.481Z,0.80
2023-02-06T23:11:45.356Z,0.70
2023-02-06T23:14:14.146Z,1.00
2023-02-06T23:16:41.397Z,1.10
2023-02-06T23:19:09.368Z,0.88
2023-02-06T23:21:38.939Z,0.70
2023-02-06T23:24:08.019Z,0.70
2023-02-06T23:26:35.618Z,0.70
2023-02-06T23:29:06.610Z,0.63
2023-02-06T23:31:33.733Z,1.00
2023-02-06T23:34:01.037Z,0.77
2023-02-06T23:36:28.946Z,0.90
2023-02-06T23:38:56.267Z,0.93
2023-02-06T23:41:28.293Z,0.82
2023-02-06T23:44:01.602Z,0.88
2023-02-06T23:46:30.952Z,0.70
2023-02-06T23:48:57.975Z,0.82
2023-02-06T23:51:25.108Z,0.82
2023-02-06T23:53:52.610Z,1.20
2023-02-06T23:56:28.396Z,0.80
2023-02-06T23:58:57.221Z,0.90
